sensor_id;sensor_type;location;lat;lon;timestamp;pressure;altitude;pressure_sealevel;temperature
66403;BMP180;53212;52.112;5.144;2022-10-15T00:00:33;100688.00;;;12.78
66403;BMP180;53212;52.112;5.144;2022-10-15T00:02:58;100687.80;;;12.78
66403;BMP180;53212;52.112;5.144;2022-10-15T00:05:24;100686.80;;;12.80
66403;BMP180;53212;52.112;5.144;2022-10-15T00:07:49;100688.80;;;12.80
66403;BMP180;53212;52.112;5.144;2022-10-15T00:10:15;100685.80;;;12.88
66403;BMP180;53212;52.112;5.144;2022-10-15T00:12:42;100680.00;;;12.90
66403;BMP180;53212;52.112;5.144;2022-10-15T00:15:09;100685.20;;;13.00
66403;BMP180;53212;52.112;5.144;2022-10-15T00:17:35;100681.20;;;13.00
66403;BMP180;53212;52.112;5.144;2022-10-15T00:20:04;100678.20;;;13.00
66403;BMP180;53212;52.112;5.144;2022-10-15T00:22:30;100683.00;;;13.00
66403;BMP180;53212;52.112;5.144;2022-10-15T00:24:55;100687.00;;;13.04
66403;BMP180;53212;52.112;5.144;2022-10-15T00:27:21;100692.00;;;13.10
66403;BMP180;53212;52.112;5.144;2022-10-15T00:29:46;100689.20;;;13.10
66403;BMP180;53212;52.112;5.144;2022-10-15T00:32:12;100688.80;;;13.20
66403;BMP180;53212;52.112;5.144;2022-10-15T00:34:37;100681.20;;;13.20
66403;BMP180;53212;52.112;5.144;2022-10-15T00:37:02;100680.40;;;13.22
66403;BMP180;53212;52.112;5.144;2022-10-15T00:39:28;100680.20;;;13.20
66403;BMP180;53212;52.112;5.144;2022-10-15T00:41:54;100676.40;;;13.20
66403;BMP180;53212;52.112;5.144;2022-10-15T00:49:43;100669.80;;;13.24
66403;BMP180;53212;52.112;5.144;2022-10-15T00:52:16;100663.80;;;13.20
66403;BMP180;53212;52.112;5.144;2022-10-15T00:54:50;100660.60;;;13.20
66403;BMP180;53212;52.112;5.144;2022-10-15T00:57:17;100662.80;;;13.20
66403;BMP180;53212;52.112;5.144;2022-10-15T00:59:49;100668.00;;;13.18
66403;BMP180;53212;52.112;5.144;2022-10-15T01:02:18;100668.80;;;13.10
66403;BMP180;53212;52.112;5.144;2022-10-15T01:04:44;100674.60;;;13.02
66403;BMP180;53212;52.112;5.144;2022-10-15T01:07:09;100681.40;;;13.00
66403;BMP180;53212;52.112;5.144;2022-10-15T01:09:35;100674.60;;;13.00
66403;BMP180;53212;52.112;5.144;2022-10-15T01:12:01;100668.00;;;12.90
66403;BMP180;53212;52.112;5.144;2022-10-15T01:14:58;100665.60;;;12.90
66403;BMP180;53212;52.112;5.144;2022-10-15T01:18:10;100662.00;;;12.90
66403;BMP180;53212;52.112;5.144;2022-10-15T01:24:48;100657.00;;;12.80
66403;BMP180;53212;52.112;5.144;2022-10-15T01:32:43;100657.20;;;12.70
66403;BMP180;53212;52.112;5.144;2022-10-15T01:40:53;100649.80;;;12.60
66403;BMP180;53212;52.112;5.144;2022-10-15T01:43:29;100639.40;;;12.52
66403;BMP180;53212;52.112;5.144;2022-10-15T01:46:04;100645.20;;;12.50
66403;BMP180;53212;52.112;5.144;2022-10-15T01:48:33;100642.40;;;12.60
66403;BMP180;53212;52.112;5.144;2022-10-15T01:51:03;100645.00;;;12.60
66403;BMP180;53212;52.112;5.144;2022-10-15T01:53:30;100634.00;;;12.68
66403;BMP180;53212;52.112;5.144;2022-10-15T01:56:07;100630.00;;;12.70
66403;BMP180;53212;52.112;5.144;2022-10-15T01:58:38;100627.00;;;12.70
66403;BMP180;53212;52.112;5.144;2022-10-15T02:01:04;100622.60;;;12.80
66403;BMP180;53212;52.112;5.144;2022-10-15T02:03:29;100619.80;;;12.80
66403;BMP180;53212;52.112;5.144;2022-10-15T02:06:22;100621.00;;;12.80
66403;BMP180;53212;52.112;5.144;2022-10-15T02:11:30;100619.60;;;12.90
66403;BMP180;53212;52.112;5.144;2022-10-15T02:14:08;100616.60;;;12.90
66403;BMP180;53212;52.112;5.144;2022-10-15T02:17:09;100613.80;;;12.90
66403;BMP180;53212;52.112;5.144;2022-10-15T02:20:00;100608.60;;;13.00
66403;BMP180;53212;52.112;5.144;2022-10-15T02:22:45;100606.80;;;13.00
66403;BMP180;53212;52.112;5.144;2022-10-15T02:25:19;100604.60;;;13.00
66403;BMP180;53212;52.112;5.144;2022-10-15T02:27:48;100601.40;;;13.00
66403;BMP180;53212;52.112;5.144;2022-10-15T02:30:15;100598.80;;;13.10
66403;BMP180;53212;52.112;5.144;2022-10-15T02:32:45;100601.20;;;13.06
66403;BMP180;53212;52.112;5.144;2022-10-15T02:35:12;100595.80;;;13.02
66403;BMP180;53212;52.112;5.144;2022-10-15T02:37:43;100593.60;;;13.00
66403;BMP180;53212;52.112;5.144;2022-10-15T02:40:09;100586.80;;;13.00
66403;BMP180;53212;52.112;5.144;2022-10-15T02:42:35;100581.80;;;12.98
66403;BMP180;53212;52.112;5.144;2022-10-15T02:45:01;100582.20;;;12.90
66403;BMP180;53212;52.112;5.144;2022-10-15T02:47:26;100580.20;;;12.90
66403;BMP180;53212;52.112;5.144;2022-10-15T02:49:52;100584.60;;;12.80
66403;BMP180;53212;52.112;5.144;2022-10-15T02:52:18;100581.40;;;12.80
66403;BMP180;53212;52.112;5.144;2022-10-15T02:54:43;100571.60;;;12.76
66403;BMP180;53212;52.112;5.144;2022-10-15T02:57:08;100571.20;;;12.70
66403;BMP180;53212;52.112;5.144;2022-10-15T02:59:34;100572.20;;;12.70
66403;BMP180;53212;52.112;5.144;2022-10-15T03:01:59;100564.60;;;12.64
66403;BMP180;53212;52.112;5.144;2022-10-15T03:04:25;100561.20;;;12.60
66403;BMP180;53212;52.112;5.144;2022-10-15T03:06:50;100561.00;;;12.60
66403;BMP180;53212;52.112;5.144;2022-10-15T03:09:16;100556.40;;;12.60
66403;BMP180;53212;52.112;5.144;2022-10-15T03:11:41;100560.60;;;12.52
66403;BMP180;53212;52.112;5.144;2022-10-15T03:14:06;100553.20;;;12.50
66403;BMP180;53212;52.112;5.144;2022-10-15T03:16:32;100545.40;;;12.50
66403;BMP180;53212;52.112;5.144;2022-10-15T03:18:57;100546.40;;;12.40
66403;BMP180;53212;52.112;5.144;2022-10-15T03:21:23;100546.60;;;12.40
66403;BMP180;53212;52.112;5.144;2022-10-15T03:23:48;100548.60;;;12.38
66403;BMP180;53212;52.112;5.144;2022-10-15T03:26:13;100553.00;;;12.30
66403;BMP180;53212;52.112;5.144;2022-10-15T03:28:39;100552.20;;;12.30
66403;BMP180;53212;52.112;5.144;2022-10-15T03:31:04;100554.20;;;12.30
66403;BMP180;53212;52.112;5.144;2022-10-15T03:33:30;100550.20;;;12.20
66403;BMP180;53212;52.112;5.144;2022-10-15T03:35:55;100550.00;;;12.20
66403;BMP180;53212;52.112;5.144;2022-10-15T03:38:21;100546.00;;;12.10
66403;BMP180;53212;52.112;5.144;2022-10-15T03:40:47;100542.60;;;12.10
66403;BMP180;53212;52.112;5.144;2022-10-15T03:43:12;100546.20;;;12.10
66403;BMP180;53212;52.112;5.144;2022-10-15T03:45:38;100550.20;;;12.10
66403;BMP180;53212;52.112;5.144;2022-10-15T03:48:04;100547.80;;;12.10
66403;BMP180;53212;52.112;5.144;2022-10-15T03:50:29;100546.60;;;12.00
66403;BMP180;53212;52.112;5.144;2022-10-15T03:52:55;100540.20;;;12.00
66403;BMP180;53212;52.112;5.144;2022-10-15T03:55:20;100547.40;;;12.00
66403;BMP180;53212;52.112;5.144;2022-10-15T03:57:45;100544.20;;;11.90
66403;BMP180;53212;52.112;5.144;2022-10-15T04:00:12;100548.00;;;11.90
66403;BMP180;53212;52.112;5.144;2022-10-15T04:02:38;100542.60;;;11.92
66403;BMP180;53212;52.112;5.144;2022-10-15T04:05:04;100546.00;;;11.90
66403;BMP180;53212;52.112;5.144;2022-10-15T04:07:30;100547.20;;;11.90
66403;BMP180;53212;52.112;5.144;2022-10-15T04:09:55;100549.60;;;11.90
66403;BMP180;53212;52.112;5.144;2022-10-15T04:12:21;100551.60;;;11.92
66403;BMP180;53212;52.112;5.144;2022-10-15T04:14:46;100551.40;;;11.90
66403;BMP180;53212;52.112;5.144;2022-10-15T04:17:11;100557.60;;;11.90
66403;BMP180;53212;52.112;5.144;2022-10-15T04:19:37;100562.40;;;11.90
66403;BMP180;53212;52.112;5.144;2022-10-15T04:22:03;100562.00;;;11.94
66403;BMP180;53212;52.112;5.144;2022-10-15T04:24:28;100560.20;;;11.90
66403;BMP180;53212;52.112;5.144;2022-10-15T04:26:54;100562.60;;;12.00
66403;BMP180;53212;52.112;5.144;2022-10-15T04:29:19;100566.80;;;12.00
66403;BMP180;53212;52.112;5.144;2022-10-15T04:31:45;100569.00;;;12.00
66403;BMP180;53212;52.112;5.144;2022-10-15T04:34:10;100567.20;;;11.90
66403;BMP180;53212;52.112;5.144;2022-10-15T04:36:36;100571.60;;;11.90
66403;BMP180;53212;52.112;5.144;2022-10-15T04:39:02;100569.20;;;12.00
66403;BMP180;53212;52.112;5.144;2022-10-15T04:41:28;100577.00;;;12.04
66403;BMP180;53212;52.112;5.144;2022-10-15T04:43:56;100575.60;;;12.10
66403;BMP180;53212;52.112;5.144;2022-10-15T04:46:21;100573.20;;;12.14
66403;BMP180;53212;52.112;5.144;2022-10-15T04:48:47;100566.60;;;12.20
66403;BMP180;53212;52.112;5.144;2022-10-15T04:51:16;100571.00;;;12.24
66403;BMP180;53212;52.112;5.144;2022-10-15T04:53:42;100567.40;;;12.30
66403;BMP180;53212;52.112;5.144;2022-10-15T04:56:14;100565.80;;;12.30
66403;BMP180;53212;52.112;5.144;2022-10-15T04:58:43;100562.40;;;12.30
66403;BMP180;53212;52.112;5.144;2022-10-15T05:01:15;100561.00;;;12.40
66403;BMP180;53212;52.112;5.144;2022-10-15T05:03:43;100564.00;;;12.40
66403;BMP180;53212;52.112;5.144;2022-10-15T05:06:14;100558.80;;;12.40
66403;BMP180;53212;52.112;5.144;2022-10-15T05:08:41;100549.60;;;12.40
66403;BMP180;53212;52.112;5.144;2022-10-15T05:11:21;100546.60;;;12.50
66403;BMP180;53212;52.112;5.144;2022-10-15T05:13:48;100559.00;;;12.50
66403;BMP180;53212;52.112;5.144;2022-10-15T05:16:22;100557.60;;;12.50
66403;BMP180;53212;52.112;5.144;2022-10-15T05:18:51;100558.60;;;12.50
66403;BMP180;53212;52.112;5.144;2022-10-15T05:21:18;100562.00;;;12.50
66403;BMP180;53212;52.112;5.144;2022-10-15T05:23:44;100557.60;;;12.50
66403;BMP180;53212;52.112;5.144;2022-10-15T05:26:20;100557.20;;;12.56
66403;BMP180;53212;52.112;5.144;2022-10-15T05:28:47;100561.40;;;12.60
66403;BMP180;53212;52.112;5.144;2022-10-15T05:31:21;100555.60;;;12.60
66403;BMP180;53212;52.112;5.144;2022-10-15T05:33:49;100553.40;;;12.66
66403;BMP180;53212;52.112;5.144;2022-10-15T05:38:49;100552.80;;;12.70
66403;BMP180;53212;52.112;5.144;2022-10-15T05:41:15;100548.60;;;12.70
66403;BMP180;53212;52.112;5.144;2022-10-15T05:43:41;100550.20;;;12.70
66403;BMP180;53212;52.112;5.144;2022-10-15T05:46:07;100549.20;;;12.70
66403;BMP180;53212;52.112;5.144;2022-10-15T05:48:33;100550.80;;;12.70
66403;BMP180;53212;52.112;5.144;2022-10-15T05:51:09;100549.00;;;12.70
66403;BMP180;53212;52.112;5.144;2022-10-15T05:53:35;100547.20;;;12.72
66403;BMP180;53212;52.112;5.144;2022-10-15T05:56:01;100551.60;;;12.80
66403;BMP180;53212;52.112;5.144;2022-10-15T05:58:27;100543.00;;;12.80
66403;BMP180;53212;52.112;5.144;2022-10-15T06:00:56;100540.60;;;12.80
66403;BMP180;53212;52.112;5.144;2022-10-15T06:03:22;100542.20;;;12.70
66403;BMP180;53212;52.112;5.144;2022-10-15T06:05:48;100539.40;;;12.70
66403;BMP180;53212;52.112;5.144;2022-10-15T06:08:14;100545.40;;;12.70
66403;BMP180;53212;52.112;5.144;2022-10-15T06:10:40;100541.80;;;12.70
66403;BMP180;53212;52.112;5.144;2022-10-15T06:13:05;100540.00;;;12.70
66403;BMP180;53212;52.112;5.144;2022-10-15T06:15:32;100541.40;;;12.70
66403;BMP180;53212;52.112;5.144;2022-10-15T06:17:58;100538.80;;;12.70
66403;BMP180;53212;52.112;5.144;2022-10-15T06:20:25;100546.40;;;12.70
66403;BMP180;53212;52.112;5.144;2022-10-15T06:22:50;100547.60;;;12.70
66403;BMP180;53212;52.112;5.144;2022-10-15T06:25:16;100552.20;;;12.70
66403;BMP180;53212;52.112;5.144;2022-10-15T06:27:41;100553.00;;;12.76
66403;BMP180;53212;52.112;5.144;2022-10-15T06:30:07;100549.20;;;12.80
66403;BMP180;53212;52.112;5.144;2022-10-15T06:32:33;100549.60;;;12.86
66403;BMP180;53212;52.112;5.144;2022-10-15T06:34:59;100545.20;;;12.90
66403;BMP180;53212;52.112;5.144;2022-10-15T06:37:24;100547.60;;;12.90
66403;BMP180;53212;52.112;5.144;2022-10-15T06:39:50;100551.00;;;12.92
66403;BMP180;53212;52.112;5.144;2022-10-15T06:42:15;100540.40;;;13.00
66403;BMP180;53212;52.112;5.144;2022-10-15T06:44:41;100541.20;;;13.10
66403;BMP180;53212;52.112;5.144;2022-10-15T06:47:06;100541.20;;;13.10
66403;BMP180;53212;52.112;5.144;2022-10-15T06:49:31;100543.80;;;13.10
66403;BMP180;53212;52.112;5.144;2022-10-15T06:51:58;100548.00;;;13.16
66403;BMP180;53212;52.112;5.144;2022-10-15T06:54:23;100550.80;;;13.20
66403;BMP180;53212;52.112;5.144;2022-10-15T06:56:50;100544.40;;;13.20
66403;BMP180;53212;52.112;5.144;2022-10-15T06:59:15;100541.80;;;13.26
66403;BMP180;53212;52.112;5.144;2022-10-15T07:01:41;100546.40;;;13.30
66403;BMP180;53212;52.112;5.144;2022-10-15T07:04:06;100548.60;;;13.30
66403;BMP180;53212;52.112;5.144;2022-10-15T07:06:34;100546.60;;;13.30
66403;BMP180;53212;52.112;5.144;2022-10-15T07:09:03;100550.60;;;13.30
66403;BMP180;53212;52.112;5.144;2022-10-15T07:11:30;100552.00;;;13.40
66403;BMP180;53212;52.112;5.144;2022-10-15T07:13:55;100551.00;;;13.40
66403;BMP180;53212;52.112;5.144;2022-10-15T07:16:23;100553.40;;;13.36
66403;BMP180;53212;52.112;5.144;2022-10-15T07:18:48;100552.60;;;13.30
66403;BMP180;53212;52.112;5.144;2022-10-15T07:21:14;100553.00;;;13.36
66403;BMP180;53212;52.112;5.144;2022-10-15T07:23:39;100553.60;;;13.40
66403;BMP180;53212;52.112;5.144;2022-10-15T07:26:05;100558.00;;;13.46
66403;BMP180;53212;52.112;5.144;2022-10-15T07:28:30;100555.00;;;13.50
66403;BMP180;53212;52.112;5.144;2022-10-15T07:31:02;100551.80;;;13.60
66403;BMP180;53212;52.112;5.144;2022-10-15T07:33:29;100545.80;;;13.66
66403;BMP180;53212;52.112;5.144;2022-10-15T07:35:55;100546.00;;;13.70
66403;BMP180;53212;52.112;5.144;2022-10-15T07:38:20;100541.00;;;13.80
66403;BMP180;53212;52.112;5.144;2022-10-15T07:40:46;100545.60;;;13.88
66403;BMP180;53212;52.112;5.144;2022-10-15T07:43:11;100552.00;;;13.90
66403;BMP180;53212;52.112;5.144;2022-10-15T07:45:37;100548.20;;;13.92
66403;BMP180;53212;52.112;5.144;2022-10-15T07:48:04;100548.40;;;13.98
66403;BMP180;53212;52.112;5.144;2022-10-15T07:50:29;100545.00;;;14.00
66403;BMP180;53212;52.112;5.144;2022-10-15T07:52:55;100543.20;;;14.00
66403;BMP180;53212;52.112;5.144;2022-10-15T07:55:20;100538.00;;;14.00
66403;BMP180;53212;52.112;5.144;2022-10-15T07:57:45;100530.80;;;14.10
66403;BMP180;53212;52.112;5.144;2022-10-15T08:00:11;100530.60;;;14.10
66403;BMP180;53212;52.112;5.144;2022-10-15T08:02:37;100525.60;;;14.18
66403;BMP180;53212;52.112;5.144;2022-10-15T08:05:03;100520.20;;;14.20
66403;BMP180;53212;52.112;5.144;2022-10-15T08:07:28;100521.80;;;14.30
66403;BMP180;53212;52.112;5.144;2022-10-15T08:09:54;100518.00;;;14.30
66403;BMP180;53212;52.112;5.144;2022-10-15T08:12:19;100521.60;;;14.30
66403;BMP180;53212;52.112;5.144;2022-10-15T08:14:45;100515.20;;;14.40
66403;BMP180;53212;52.112;5.144;2022-10-15T08:17:10;100511.20;;;14.40
66403;BMP180;53212;52.112;5.144;2022-10-15T08:19:36;100510.60;;;14.40
66403;BMP180;53212;52.112;5.144;2022-10-15T08:22:01;100522.20;;;14.30
66403;BMP180;53212;52.112;5.144;2022-10-15T08:24:27;100521.60;;;14.30
66403;BMP180;53212;52.112;5.144;2022-10-15T08:26:56;100522.00;;;14.34
66403;BMP180;53212;52.112;5.144;2022-10-15T08:29:22;100516.00;;;14.40
66403;BMP180;53212;52.112;5.144;2022-10-15T08:31:47;100519.00;;;14.50
66403;BMP180;53212;52.112;5.144;2022-10-15T08:34:13;100517.60;;;14.60
66403;BMP180;53212;52.112;5.144;2022-10-15T08:36:39;100511.00;;;14.80
66403;BMP180;53212;52.112;5.144;2022-10-15T08:39:04;100500.00;;;14.90
66403;BMP180;53212;52.112;5.144;2022-10-15T08:41:49;100492.20;;;15.00
66403;BMP180;53212;52.112;5.144;2022-10-15T08:44:49;100486.00;;;15.04
66403;BMP180;53212;52.112;5.144;2022-10-15T08:47:30;100489.20;;;15.18
66403;BMP180;53212;52.112;5.144;2022-10-15T08:52:57;100487.20;;;15.50
66403;BMP180;53212;52.112;5.144;2022-10-15T08:55:23;100484.60;;;15.56
66403;BMP180;53212;52.112;5.144;2022-10-15T08:58:09;100484.40;;;15.60
66403;BMP180;53212;52.112;5.144;2022-10-15T09:00:57;100484.20;;;15.88
66403;BMP180;53212;52.112;5.144;2022-10-15T09:03:50;100480.00;;;16.20
66403;BMP180;53212;52.112;5.144;2022-10-15T09:06:29;100487.20;;;16.20
66403;BMP180;53212;52.112;5.144;2022-10-15T09:09:27;100481.80;;;16.20
66403;BMP180;53212;52.112;5.144;2022-10-15T09:12:35;100476.40;;;16.28
66403;BMP180;53212;52.112;5.144;2022-10-15T09:15:18;100479.60;;;16.30
66403;BMP180;53212;52.112;5.144;2022-10-15T09:17:47;100473.80;;;16.30
66403;BMP180;53212;52.112;5.144;2022-10-15T09:20:18;100470.60;;;16.32
66403;BMP180;53212;52.112;5.144;2022-10-15T09:22:44;100470.20;;;16.40
66403;BMP180;53212;52.112;5.144;2022-10-15T09:25:18;100469.80;;;16.30
66403;BMP180;53212;52.112;5.144;2022-10-15T09:27:50;100463.40;;;16.30
66403;BMP180;53212;52.112;5.144;2022-10-15T09:31:05;100470.20;;;16.20
66403;BMP180;53212;52.112;5.144;2022-10-15T09:33:44;100459.80;;;16.08
66403;BMP180;53212;52.112;5.144;2022-10-15T09:42:26;100475.20;;;15.80
66403;BMP180;53212;52.112;5.144;2022-10-15T09:44:57;100467.60;;;15.80
66403;BMP180;53212;52.112;5.144;2022-10-15T09:47:30;100465.80;;;15.70
66403;BMP180;53212;52.112;5.144;2022-10-15T09:49:56;100468.20;;;15.62
66403;BMP180;53212;52.112;5.144;2022-10-15T09:58:32;100445.60;;;15.40
66403;BMP180;53212;52.112;5.144;2022-10-15T10:01:06;100451.20;;;15.40
66403;BMP180;53212;52.112;5.144;2022-10-15T10:03:35;100443.00;;;15.40
66403;BMP180;53212;52.112;5.144;2022-10-15T10:06:10;100438.60;;;15.50
66403;BMP180;53212;52.112;5.144;2022-10-15T10:08:49;100442.60;;;15.60
66403;BMP180;53212;52.112;5.144;2022-10-15T10:11:15;100446.80;;;15.70
66403;BMP180;53212;52.112;5.144;2022-10-15T10:13:56;100434.00;;;15.74
66403;BMP180;53212;52.112;5.144;2022-10-15T10:16:23;100437.40;;;15.90
66403;BMP180;53212;52.112;5.144;2022-10-15T10:19:13;100440.00;;;16.02
66403;BMP180;53212;52.112;5.144;2022-10-15T10:21:42;100432.60;;;16.10
66403;BMP180;53212;52.112;5.144;2022-10-15T10:24:40;100438.00;;;16.10
66403;BMP180;53212;52.112;5.144;2022-10-15T10:27:28;100438.80;;;16.16
66403;BMP180;53212;52.112;5.144;2022-10-15T10:30:02;100437.20;;;16.20
66403;BMP180;53212;52.112;5.144;2022-10-15T10:32:33;100431.00;;;16.30
66403;BMP180;53212;52.112;5.144;2022-10-15T10:35:01;100430.00;;;16.22
66403;BMP180;53212;52.112;5.144;2022-10-15T10:37:27;100427.00;;;16.22
66403;BMP180;53212;52.112;5.144;2022-10-15T10:39:59;100431.60;;;16.20
66403;BMP180;53212;52.112;5.144;2022-10-15T10:42:31;100435.00;;;16.10
66403;BMP180;53212;52.112;5.144;2022-10-15T10:45:19;100428.80;;;16.00
66403;BMP180;53212;52.112;5.144;2022-10-15T10:47:45;100432.00;;;16.00
66403;BMP180;53212;52.112;5.144;2022-10-15T10:50:33;100436.20;;;15.82
66403;BMP180;53212;52.112;5.144;2022-10-15T10:55:44;100431.60;;;15.70
66403;BMP180;53212;52.112;5.144;2022-10-15T10:58:18;100429.40;;;15.64
66403;BMP180;53212;52.112;5.144;2022-10-15T11:00:49;100432.00;;;15.60
66403;BMP180;53212;52.112;5.144;2022-10-15T11:03:34;100429.20;;;15.50
66403;BMP180;53212;52.112;5.144;2022-10-15T11:06:43;100423.40;;;15.60
66403;BMP180;53212;52.112;5.144;2022-10-15T11:18:21;100413.40;;;15.70
66403;BMP180;53212;52.112;5.144;2022-10-15T11:21:26;100402.20;;;15.80
66403;BMP180;53212;52.112;5.144;2022-10-15T11:24:20;100397.40;;;15.90
66403;BMP180;53212;52.112;5.144;2022-10-15T11:29:52;100392.60;;;15.80
66403;BMP180;53212;52.112;5.144;2022-10-15T11:41:46;100399.20;;;15.70
66403;BMP180;53212;52.112;5.144;2022-10-15T11:50:43;100395.20;;;15.80
66403;BMP180;53212;52.112;5.144;2022-10-15T11:58:34;100386.20;;;16.10
66403;BMP180;53212;52.112;5.144;2022-10-15T12:01:29;100383.80;;;16.10
66403;BMP180;53212;52.112;5.144;2022-10-15T12:04:02;100383.60;;;16.10
66403;BMP180;53212;52.112;5.144;2022-10-15T12:06:36;100387.60;;;16.18
66403;BMP180;53212;52.112;5.144;2022-10-15T12:09:05;100390.40;;;16.20
66403;BMP180;53212;52.112;5.144;2022-10-15T12:11:51;100383.40;;;16.20
66403;BMP180;53212;52.112;5.144;2022-10-15T12:14:34;100382.00;;;16.20
66403;BMP180;53212;52.112;5.144;2022-10-15T12:20:17;100384.20;;;16.40
66403;BMP180;53212;52.112;5.144;2022-10-15T12:28:20;100384.80;;;16.70
66403;BMP180;53212;52.112;5.144;2022-10-15T12:31:15;100384.40;;;16.80
66403;BMP180;53212;52.112;5.144;2022-10-15T12:33:52;100389.40;;;16.80
66403;BMP180;53212;52.112;5.144;2022-10-15T12:39:06;100394.80;;;16.90
66403;BMP180;53212;52.112;5.144;2022-10-15T12:41:50;100388.80;;;16.96
66403;BMP180;53212;52.112;5.144;2022-10-15T12:44:29;100397.80;;;16.90
66403;BMP180;53212;52.112;5.144;2022-10-15T12:46:55;100397.20;;;16.90
66403;BMP180;53212;52.112;5.144;2022-10-15T12:51:58;100394.00;;;16.80
66403;BMP180;53212;52.112;5.144;2022-10-15T12:54:46;100397.40;;;16.80
66403;BMP180;53212;52.112;5.144;2022-10-15T13:00:00;100395.60;;;16.80
66403;BMP180;53212;52.112;5.144;2022-10-15T13:02:39;100398.80;;;16.80
66403;BMP180;53212;52.112;5.144;2022-10-15T13:05:11;100404.60;;;16.80
66403;BMP180;53212;52.112;5.144;2022-10-15T13:07:47;100407.20;;;16.80
66403;BMP180;53212;52.112;5.144;2022-10-15T13:10:26;100409.20;;;16.90
66403;BMP180;53212;52.112;5.144;2022-10-15T13:12:54;100407.00;;;16.90
66403;BMP180;53212;52.112;5.144;2022-10-15T13:15:26;100407.20;;;17.00
66403;BMP180;53212;52.112;5.144;2022-10-15T13:17:55;100408.80;;;17.02
66403;BMP180;53212;52.112;5.144;2022-10-15T13:20:39;100421.40;;;17.10
66403;BMP180;53212;52.112;5.144;2022-10-15T13:26:15;100409.60;;;17.30
66403;BMP180;53212;52.112;5.144;2022-10-15T13:28:43;100408.80;;;17.30
66403;BMP180;53212;52.112;5.144;2022-10-15T13:31:34;100411.00;;;17.30
66403;BMP180;53212;52.112;5.144;2022-10-15T13:36:35;100411.00;;;17.20
66403;BMP180;53212;52.112;5.144;2022-10-15T13:39:19;100416.80;;;17.20
66403;BMP180;53212;52.112;5.144;2022-10-15T13:41:46;100422.80;;;17.20
66403;BMP180;53212;52.112;5.144;2022-10-15T13:44:23;100428.60;;;17.10
66403;BMP180;53212;52.112;5.144;2022-10-15T13:46:49;100427.60;;;17.20
66403;BMP180;53212;52.112;5.144;2022-10-15T13:49:16;100431.40;;;17.20
66403;BMP180;53212;52.112;5.144;2022-10-15T13:51:48;100433.60;;;17.30
66403;BMP180;53212;52.112;5.144;2022-10-15T13:54:28;100434.60;;;17.20
66403;BMP180;53212;52.112;5.144;2022-10-15T13:57:00;100434.80;;;17.34
66403;BMP180;53212;52.112;5.144;2022-10-15T13:59:30;100436.00;;;17.50
66403;BMP180;53212;52.112;5.144;2022-10-15T14:02:00;100437.40;;;17.60
66403;BMP180;53212;52.112;5.144;2022-10-15T14:04:31;100444.00;;;17.60
66403;BMP180;53212;52.112;5.144;2022-10-15T14:07:15;100447.60;;;17.60
66403;BMP180;53212;52.112;5.144;2022-10-15T14:09:45;100454.00;;;17.50
66403;BMP180;53212;52.112;5.144;2022-10-15T14:12:11;100452.20;;;17.50
66403;BMP180;53212;52.112;5.144;2022-10-15T14:14:40;100451.00;;;17.60
66403;BMP180;53212;52.112;5.144;2022-10-15T14:19:55;100459.60;;;17.60
66403;BMP180;53212;52.112;5.144;2022-10-15T14:22:22;100463.80;;;17.40
66403;BMP180;53212;52.112;5.144;2022-10-15T14:24:51;100467.20;;;17.30
66403;BMP180;53212;52.112;5.144;2022-10-15T14:27:25;100468.20;;;17.34
66403;BMP180;53212;52.112;5.144;2022-10-15T14:29:54;100473.00;;;17.40
66403;BMP180;53212;52.112;5.144;2022-10-15T14:32:43;100471.00;;;17.50
66403;BMP180;53212;52.112;5.144;2022-10-15T14:35:41;100478.20;;;17.52
66403;BMP180;53212;52.112;5.144;2022-10-15T14:40:32;100491.40;;;17.50
66403;BMP180;53212;52.112;5.144;2022-10-15T14:43:16;100495.40;;;17.40
66403;BMP180;53212;52.112;5.144;2022-10-15T14:48:33;100507.40;;;17.10
66403;BMP180;53212;52.112;5.144;2022-10-15T14:51:06;100508.80;;;17.00
66403;BMP180;53212;52.112;5.144;2022-10-15T14:53:37;100511.00;;;16.84
66403;BMP180;53212;52.112;5.144;2022-10-15T14:56:31;100511.20;;;16.70
66403;BMP180;53212;52.112;5.144;2022-10-15T14:58:58;100508.60;;;16.70
66403;BMP180;53212;52.112;5.144;2022-10-15T15:01:24;100515.80;;;16.90
66403;BMP180;53212;52.112;5.144;2022-10-15T15:03:54;100515.80;;;17.10
66403;BMP180;53212;52.112;5.144;2022-10-15T15:06:20;100516.20;;;17.20
66403;BMP180;53212;52.112;5.144;2022-10-15T15:08:46;100517.80;;;17.22
66403;BMP180;53212;52.112;5.144;2022-10-15T15:11:20;100524.80;;;17.22
66403;BMP180;53212;52.112;5.144;2022-10-15T15:13:47;100530.00;;;17.30
66403;BMP180;53212;52.112;5.144;2022-10-15T15:16:15;100539.00;;;17.40
66403;BMP180;53212;52.112;5.144;2022-10-15T15:18:41;100536.60;;;17.40
66403;BMP180;53212;52.112;5.144;2022-10-15T15:21:12;100531.80;;;17.22
66403;BMP180;53212;52.112;5.144;2022-10-15T15:23:38;100536.00;;;17.10
66403;BMP180;53212;52.112;5.144;2022-10-15T15:26:04;100531.40;;;17.00
66403;BMP180;53212;52.112;5.144;2022-10-15T15:28:30;100533.40;;;16.90
66403;BMP180;53212;52.112;5.144;2022-10-15T15:31:04;100530.80;;;16.80
66403;BMP180;53212;52.112;5.144;2022-10-15T15:33:31;100532.80;;;16.80
66403;BMP180;53212;52.112;5.144;2022-10-15T15:36:03;100534.80;;;16.70
66403;BMP180;53212;52.112;5.144;2022-10-15T15:38:32;100537.20;;;16.70
66403;BMP180;53212;52.112;5.144;2022-10-15T15:41:10;100540.20;;;16.70
66403;BMP180;53212;52.112;5.144;2022-10-15T15:43:36;100547.40;;;16.60
66403;BMP180;53212;52.112;5.144;2022-10-15T15:46:02;100545.80;;;16.60
66403;BMP180;53212;52.112;5.144;2022-10-15T15:48:27;100551.60;;;16.56
66403;BMP180;53212;52.112;5.144;2022-10-15T15:50:57;100551.20;;;16.58
66403;BMP180;53212;52.112;5.144;2022-10-15T15:53:24;100547.40;;;16.60
66403;BMP180;53212;52.112;5.144;2022-10-15T15:55:49;100556.60;;;16.62
66403;BMP180;53212;52.112;5.144;2022-10-15T15:58:15;100556.20;;;16.70
66403;BMP180;53212;52.112;5.144;2022-10-15T16:00:40;100552.60;;;16.70
66403;BMP180;53212;52.112;5.144;2022-10-15T16:03:06;100557.40;;;16.60